createdAt,value
2018-09-29T00:00:00.648Z,11.40
2018-09-29T00:03:25.076Z,8.40
2018-09-29T00:06:49.569Z,12.27
2018-09-29T00:10:14.092Z,8.97
2018-09-29T00:13:38.482Z,10.37
2018-09-29T00:17:03.021Z,5.60
2018-09-29T00:20:27.465Z,5.90
2018-09-29T00:23:51.961Z,8.57
2018-09-29T00:27:16.369Z,8.33
2018-09-29T00:30:40.836Z,5.33
2018-09-29T00:34:05.441Z,13.13
2018-09-29T00:37:30.120Z,6.83
2018-09-29T00:40:54.523Z,8.93
2018-09-29T00:44:18.985Z,8.73
2018-09-29T00:47:43.409Z,10.47
2018-09-29T00:51:07.914Z,11.27
2018-09-29T00:54:32.336Z,5.57
2018-09-29T00:57:56.903Z,11.60
2018-09-29T01:01:21.353Z,8.70
2018-09-29T01:04:45.796Z,11.73
2018-09-29T01:08:10.264Z,7.13
2018-09-29T01:11:34.679Z,8.20
2018-09-29T01:14:59.601Z,10.53
2018-09-29T01:18:24.110Z,9.53
2018-09-29T01:21:48.549Z,7.47
2018-09-29T01:25:12.981Z,10.77
2018-09-29T01:28:37.973Z,12.40
2018-09-29T01:32:02.481Z,10.40
2018-09-29T01:35:26.949Z,8.50
2018-09-29T01:38:51.447Z,8.40
2018-09-29T01:42:15.884Z,14.90
2018-09-29T01:45:40.356Z,9.13
2018-09-29T01:49:04.932Z,5.20
2018-09-29T01:52:29.443Z,10.10
2018-09-29T01:55:53.908Z,8.20
2018-09-29T01:59:18.361Z,10.63
2018-09-29T02:02:42.797Z,11.30
2018-09-29T02:06:07.393Z,5.20
2018-09-29T02:09:31.874Z,10.23
2018-09-29T02:12:56.288Z,9.83
2018-09-29T02:16:20.760Z,7.33
2018-09-29T02:19:45.255Z,8.83
2018-09-29T02:23:09.971Z,9.83
2018-09-29T02:26:34.411Z,12.70
2018-09-29T02:29:58.881Z,10.87
2018-09-29T02:33:23.370Z,7.60
2018-09-29T02:36:47.894Z,5.57
2018-09-29T02:40:12.355Z,8.50
2018-09-29T02:43:36.820Z,8.23
2018-09-29T02:47:01.278Z,9.50
2018-09-29T02:50:25.721Z,8.77
2018-09-29T02:53:50.396Z,6.77
2018-09-29T02:57:14.904Z,15.33
2018-09-29T03:00:39.333Z,8.73
2018-09-29T03:04:03.858Z,9.73
2018-09-29T03:07:28.274Z,9.07
2018-09-29T03:10:52.681Z,9.50
2018-09-29T03:14:17.085Z,10.10
2018-09-29T03:17:41.543Z,9.97
2018-09-29T03:21:05.976Z,8.50
2018-09-29T03:24:30.428Z,14.30
2018-09-29T03:27:54.868Z,11.43
2018-09-29T03:31:19.278Z,8.33
2018-09-29T03:34:43.744Z,6.40
2018-09-29T03:38:08.544Z,7.10
2018-09-29T03:41:32.947Z,9.20
2018-09-29T03:44:57.458Z,10.23
2018-09-29T03:48:21.941Z,8.37
2018-09-29T03:51:46.447Z,9.33
2018-09-29T03:55:10.899Z,8.93
2018-09-29T03:58:35.355Z,7.90
2018-09-29T04:01:59.784Z,9.23
2018-09-29T04:05:24.209Z,9.77
2018-09-29T04:08:48.711Z,9.63
2018-09-29T04:12:13.144Z,10.50
2018-09-29T04:15:38.077Z,6.30
2018-09-29T04:19:02.520Z,5.97
2018-09-29T04:22:26.998Z,6.60
2018-09-29T04:25:51.705Z,9.17
2018-09-29T04:29:17.421Z,5.17
2018-09-29T04:32:41.941Z,8.73
2018-09-29T04:36:07.585Z,7.90
2018-09-29T04:39:37.265Z,11.90
2018-09-29T04:43:01.849Z,6.13
2018-09-29T04:46:26.568Z,10.00
2018-09-29T04:49:51.144Z,9.10
2018-09-29T04:53:15.558Z,5.97
2018-09-29T04:56:40.100Z,6.43
2018-09-29T05:00:05.007Z,9.83
2018-09-29T05:03:29.438Z,8.67
2018-09-29T05:06:53.937Z,12.43
2018-09-29T05:10:18.398Z,8.70
2018-09-29T05:13:42.810Z,7.10
2018-09-29T05:17:07.322Z,8.47
2018-09-29T05:20:31.912Z,7.20
2018-09-29T05:23:56.345Z,8.30
2018-09-29T05:27:21.166Z,7.00
2018-09-29T05:30:45.674Z,5.90
2018-09-29T05:34:10.076Z,10.87
2018-09-29T05:37:34.562Z,9.33
2018-09-29T05:40:59.054Z,6.33
2018-09-29T05:44:42.915Z,4.93
2018-09-29T05:48:07.520Z,5.83
2018-09-29T05:51:32.292Z,5.73
2018-09-29T05:54:56.770Z,6.40
2018-09-29T05:58:21.201Z,9.23
2018-09-29T06:01:45.688Z,8.50
2018-09-29T06:05:10.235Z,15.57
2018-09-29T06:08:34.754Z,16.03
2018-09-29T06:11:59.284Z,12.93
2018-09-29T06:15:23.774Z,9.43
2018-09-29T06:18:48.176Z,11.43
2018-09-29T06:22:12.633Z,10.23
2018-09-29T06:25:37.057Z,7.47
2018-09-29T06:29:01.481Z,10.77
2018-09-29T06:32:25.940Z,9.43
2018-09-29T06:35:51.479Z,7.90
2018-09-29T06:39:15.887Z,13.13
2018-09-29T06:42:40.442Z,10.07
2018-09-29T06:46:05.044Z,9.97
2018-09-29T06:49:29.533Z,11.17
2018-09-29T06:52:54.142Z,14.23
2018-09-29T06:56:18.556Z,12.07
2018-09-29T06:59:43.106Z,14.97
2018-09-29T07:03:07.637Z,14.67
2018-09-29T07:06:32.025Z,14.63
2018-09-29T07:09:56.503Z,18.27
2018-09-29T07:13:20.982Z,17.90
2018-09-29T07:16:45.444Z,15.23
2018-09-29T07:20:09.826Z,13.63
2018-09-29T07:23:34.292Z,15.07
2018-09-29T07:26:58.738Z,17.60
2018-09-29T07:30:23.172Z,14.53
2018-09-29T07:33:47.630Z,16.17
2018-09-29T07:37:12.084Z,13.60
2018-09-29T07:40:36.675Z,17.03
2018-09-29T07:44:01.255Z,11.23
2018-09-29T07:47:25.703Z,12.40
2018-09-29T07:50:51.188Z,11.87
2018-09-29T07:54:15.593Z,12.30
2018-09-29T07:57:40.050Z,14.67
2018-09-29T08:01:04.464Z,8.93
2018-09-29T08:04:28.898Z,13.77
2018-09-29T08:07:53.320Z,9.97
2018-09-29T08:11:17.833Z,13.27
2018-09-29T08:14:42.352Z,12.87
2018-09-29T08:18:06.781Z,12.90
2018-09-29T08:21:31.369Z,12.53
2018-09-29T08:24:55.796Z,10.77
2018-09-29T08:28:20.340Z,9.17
2018-09-29T08:31:44.852Z,8.37
2018-09-29T08:35:09.302Z,9.47
2018-09-29T08:38:33.916Z,15.30
2018-09-29T08:41:58.420Z,15.00
2018-09-29T08:45:22.858Z,7.13
2018-09-29T08:48:47.335Z,14.43
2018-09-29T08:52:11.833Z,10.07
2018-09-29T08:55:36.258Z,9.90
2018-09-29T08:59:00.729Z,5.87
2018-09-29T09:02:25.144Z,6.03
2018-09-29T09:05:49.568Z,10.97
2018-09-29T09:09:14.049Z,11.43
2018-09-29T09:12:38.498Z,12.87
2018-09-29T09:16:02.908Z,13.25
2018-09-29T09:19:27.332Z,10.70
2018-09-29T09:22:51.865Z,7.67
2018-09-29T09:26:16.220Z,9.15
2018-09-29T09:29:40.656Z,8.70
2018-09-29T09:33:05.087Z,6.35
2018-09-29T09:36:29.542Z,9.25
2018-09-29T09:39:53.986Z,6.65
2018-09-29T09:43:18.433Z,6.08
2018-09-29T09:46:42.856Z,9.90
2018-09-29T09:50:07.323Z,10.63
2018-09-29T09:53:31.726Z,4.90
2018-09-29T09:56:56.171Z,6.83
2018-09-29T10:00:22.099Z,6.53
2018-09-29T10:03:46.536Z,9.08
2018-09-29T10:07:10.972Z,5.50
2018-09-29T10:10:35.402Z,7.25
2018-09-29T10:13:59.806Z,3.58
2018-09-29T10:17:24.265Z,9.63
2018-09-29T10:20:48.619Z,4.78
2018-09-29T10:24:13.052Z,6.90
2018-09-29T10:27:37.511Z,2.52
2018-09-29T10:31:02.353Z,5.10
2018-09-29T10:34:26.795Z,8.75
2018-09-29T10:37:51.269Z,4.97
2018-09-29T10:41:15.684Z,2.33
2018-09-29T10:44:40.257Z,6.60
2018-09-29T10:48:04.706Z,5.67
2018-09-29T10:51:29.193Z,4.42
2018-09-29T10:54:53.742Z,2.60
2018-09-29T10:58:18.272Z,5.37
2018-09-29T11:01:42.833Z,3.37
2018-09-29T11:05:07.487Z,3.58
2018-09-29T11:08:31.887Z,5.58
2018-09-29T11:11:56.374Z,2.72
2018-09-29T11:15:20.851Z,3.80
2018-09-29T11:18:45.253Z,3.02
2018-09-29T11:22:09.727Z,4.20
2018-09-29T11:25:34.156Z,2.77
2018-09-29T11:28:58.605Z,4.40
2018-09-29T11:32:23.055Z,3.62
2018-09-29T11:35:47.621Z,4.25
2018-09-29T11:39:12.999Z,3.55
2018-09-29T11:42:37.413Z,4.47
2018-09-29T11:46:01.819Z,4.55
2018-09-29T11:49:26.348Z,3.33
2018-09-29T11:52:50.783Z,3.22
2018-09-29T11:56:15.370Z,3.55
2018-09-29T11:59:39.798Z,4.65
2018-09-29T12:03:04.277Z,6.12
2018-09-29T12:06:28.885Z,3.05
2018-09-29T12:09:53.344Z,3.95
2018-09-29T12:13:18.620Z,6.10
2018-09-29T12:16:43.273Z,10.65
2018-09-29T12:20:07.786Z,6.15
2018-09-29T12:23:32.280Z,7.70
2018-09-29T12:26:56.704Z,3.92
2018-09-29T12:30:21.145Z,3.92
2018-09-29T12:33:45.605Z,4.08
2018-09-29T12:37:10.195Z,4.50
2018-09-29T12:40:34.972Z,2.22
2018-09-29T12:43:59.394Z,5.20
2018-09-29T12:47:23.922Z,3.30
2018-09-29T12:50:48.442Z,4.60
2018-09-29T12:54:12.859Z,3.08
2018-09-29T12:57:37.426Z,4.22
2018-09-29T13:01:01.997Z,2.75
2018-09-29T13:04:26.611Z,4.85
2018-09-29T13:07:51.041Z,2.62
2018-09-29T13:11:15.557Z,4.53
2018-09-29T13:14:39.980Z,3.98
2018-09-29T13:18:04.471Z,5.78
2018-09-29T13:21:28.948Z,5.55
2018-09-29T13:24:53.387Z,3.60
2018-09-29T13:28:17.848Z,3.85
2018-09-29T13:31:42.343Z,9.35
2018-09-29T13:35:06.832Z,4.95
2018-09-29T13:38:31.247Z,4.08
2018-09-29T13:41:55.720Z,7.05
2018-09-29T13:45:20.145Z,4.30
2018-09-29T13:48:44.512Z,3.62
2018-09-29T13:52:08.936Z,4.00
2018-09-29T13:55:33.368Z,3.87
2018-09-29T13:58:57.839Z,5.87
2018-09-29T14:02:22.426Z,4.87
2018-09-29T14:05:46.736Z,2.15
2018-09-29T14:09:11.474Z,4.97
2018-09-29T14:12:35.970Z,5.97
2018-09-29T14:16:00.420Z,2.62
2018-09-29T14:19:24.898Z,4.37
2018-09-29T14:22:49.367Z,4.97
2018-09-29T14:26:13.820Z,3.83
2018-09-29T14:29:39.121Z,2.50
2018-09-29T14:33:03.577Z,13.13
2018-09-29T14:36:27.982Z,4.50
2018-09-29T14:39:52.392Z,5.78
2018-09-29T14:43:16.872Z,5.05
2018-09-29T14:46:41.318Z,4.22
2018-09-29T14:50:05.892Z,2.50
2018-09-29T14:53:30.333Z,1.95
2018-09-29T14:56:54.750Z,6.10
2018-09-29T15:00:19.252Z,5.45
2018-09-29T15:03:43.710Z,4.33
2018-09-29T15:07:08.162Z,5.17
2018-09-29T15:10:33.044Z,4.20
2018-09-29T15:13:57.565Z,3.70
2018-09-29T15:17:22.088Z,4.60
2018-09-29T15:20:46.551Z,3.12
2018-09-29T15:24:11.115Z,3.00
2018-09-29T15:27:35.651Z,2.33
2018-09-29T15:31:00.217Z,4.40
2018-09-29T15:34:24.735Z,4.72
2018-09-29T15:37:49.234Z,4.47
2018-09-29T15:41:13.676Z,4.83
2018-09-29T15:44:38.281Z,2.60
2018-09-29T15:48:02.851Z,3.30
2018-09-29T15:51:27.363Z,1.60
2018-09-29T15:54:51.862Z,5.80
2018-09-29T15:58:16.445Z,4.20
2018-09-29T16:01:40.970Z,6.05
2018-09-29T16:05:05.779Z,4.90
2018-09-29T16:08:30.330Z,6.17
2018-09-29T16:11:54.791Z,7.95
2018-09-29T16:15:19.237Z,3.42
2018-09-29T16:18:43.664Z,3.90
2018-09-29T16:22:08.179Z,5.72
2018-09-29T16:25:32.815Z,5.15
2018-09-29T16:28:57.305Z,4.83
2018-09-29T16:32:21.738Z,4.75
2018-09-29T16:35:46.225Z,5.58
2018-09-29T16:39:12.791Z,2.92
2018-09-29T16:42:37.285Z,11.70
2018-09-29T16:46:01.860Z,5.22
2018-09-29T16:49:26.419Z,5.30
2018-09-29T16:52:51.253Z,6.40
2018-09-29T16:56:16.012Z,11.40
2018-09-29T16:59:40.937Z,21.12
2018-09-29T17:03:06.364Z,58.00
2018-09-29T17:06:31.338Z,39.80
2018-09-29T17:09:55.971Z,20.23
2018-09-29T17:13:21.051Z,54.60
2018-09-29T17:16:45.912Z,45.67
2018-09-29T17:20:10.628Z,16.82
2018-09-29T17:23:35.277Z,6.85
2018-09-29T17:26:59.937Z,6.90
2018-09-29T17:30:24.464Z,6.92
2018-09-29T17:33:48.994Z,5.80
2018-09-29T17:37:13.499Z,5.33
2018-09-29T17:40:37.937Z,5.28
2018-09-29T17:44:02.679Z,8.83
2018-09-29T17:47:27.648Z,12.43
2018-09-29T17:50:52.178Z,8.13
2018-09-29T17:54:16.649Z,10.10
2018-09-29T17:57:41.058Z,6.75
2018-09-29T18:01:05.568Z,7.92
2018-09-29T18:04:30.094Z,8.10
2018-09-29T18:07:54.513Z,8.10
2018-09-29T18:11:18.922Z,9.95
2018-09-29T18:14:43.377Z,11.73
2018-09-29T18:18:08.769Z,8.23
2018-09-29T18:21:33.242Z,12.50
2018-09-29T18:24:59.440Z,12.50
2018-09-29T18:28:23.884Z,8.85
2018-09-29T18:31:48.409Z,12.23
2018-09-29T18:35:12.925Z,9.67
2018-09-29T18:38:38.022Z,12.90
2018-09-29T18:42:02.477Z,8.80
2018-09-29T18:45:26.920Z,12.43
2018-09-29T18:48:51.433Z,11.70
2018-09-29T18:52:17.690Z,13.57
2018-09-29T18:55:42.876Z,12.20
2018-09-29T18:59:07.385Z,11.00
2018-09-29T19:02:31.814Z,11.97
2018-09-29T19:05:56.344Z,9.13
2018-09-29T19:09:20.777Z,10.37
2018-09-29T19:12:47.208Z,10.50
2018-09-29T19:16:12.432Z,9.80
2018-09-29T19:19:39.446Z,9.47
2018-09-29T19:23:04.217Z,11.47
2018-09-29T19:26:28.988Z,12.73
2018-09-29T19:29:54.757Z,12.80
2018-09-29T19:33:19.774Z,10.93
2018-09-29T19:36:45.073Z,10.17
2018-09-29T19:40:10.482Z,7.67
2018-09-29T19:43:36.663Z,8.83
2018-09-29T19:47:02.423Z,15.13
2018-09-29T19:50:28.633Z,11.60
2018-09-29T19:53:53.159Z,11.00
2018-09-29T19:57:25.498Z,10.27
2018-09-29T20:00:50.171Z,10.60
2018-09-29T20:04:15.188Z,14.47
2018-09-29T20:07:40.690Z,12.23
2018-09-29T20:11:07.199Z,15.77
2018-09-29T20:14:32.743Z,15.73
2018-09-29T20:17:59.250Z,17.80
2018-09-29T20:21:25.353Z,17.80
2018-09-29T20:24:50.113Z,13.63
2018-09-29T20:28:15.101Z,13.77
2018-09-29T20:31:41.358Z,15.17
2018-09-29T20:35:06.869Z,16.30
2018-09-29T20:38:31.327Z,14.20
2018-09-29T20:41:56.689Z,17.40
2018-09-29T20:45:21.979Z,16.07
2018-09-29T20:48:46.623Z,17.03
2018-09-29T20:52:12.655Z,15.80
2018-09-29T20:55:39.026Z,13.87
2018-09-29T20:59:04.764Z,18.07
2018-09-29T21:02:30.853Z,18.07
2018-09-29T21:05:56.275Z,19.27
2018-09-29T21:09:21.657Z,19.03
2018-09-29T21:12:46.216Z,20.20
2018-09-29T21:16:12.786Z,17.20
2018-09-29T21:19:38.068Z,22.53
2018-09-29T21:23:02.601Z,23.20
2018-09-29T21:26:27.103Z,21.23
2018-09-29T21:29:51.585Z,19.80
2018-09-29T21:33:16.010Z,18.70
2018-09-29T21:36:40.441Z,22.53
2018-09-29T21:40:04.960Z,19.53
2018-09-29T21:43:29.441Z,19.23
2018-09-29T21:46:53.888Z,14.83
2018-09-29T21:50:18.320Z,15.40
2018-09-29T21:53:43.147Z,17.80
2018-09-29T21:57:07.890Z,19.03
2018-09-29T22:00:37.605Z,14.77
2018-09-29T22:04:03.388Z,18.90
2018-09-29T22:07:27.914Z,16.50
2018-09-29T22:10:52.338Z,15.57
2018-09-29T22:14:16.774Z,16.33
2018-09-29T22:17:41.187Z,12.70
2018-09-29T22:21:05.766Z,15.43
2018-09-29T22:24:30.539Z,16.17
2018-09-29T22:27:55.285Z,13.47
2018-09-29T22:31:19.696Z,16.50
2018-09-29T22:34:44.178Z,15.30
2018-09-29T22:38:08.764Z,15.10
2018-09-29T22:41:33.237Z,18.43
2018-09-29T22:44:57.933Z,13.40
2018-09-29T22:48:22.373Z,17.27
2018-09-29T22:51:46.740Z,19.17
2018-09-29T22:55:11.242Z,16.73
2018-09-29T22:58:35.718Z,17.33
2018-09-29T23:02:00.166Z,14.20
2018-09-29T23:05:24.580Z,17.67
2018-09-29T23:08:49.019Z,15.73
2018-09-29T23:12:13.486Z,14.70
2018-09-29T23:15:38.002Z,14.00
2018-09-29T23:19:02.502Z,16.20
2018-09-29T23:22:26.930Z,11.97
2018-09-29T23:25:51.376Z,15.50
2018-09-29T23:29:15.833Z,13.63
2018-09-29T23:32:40.338Z,20.13
2018-09-29T23:36:04.967Z,16.87
2018-09-29T23:39:29.406Z,14.40
2018-09-29T23:42:54.041Z,15.67
2018-09-29T23:46:18.434Z,13.87
2018-09-29T23:49:42.874Z,14.13
2018-09-29T23:53:07.881Z,15.10
2018-09-29T23:56:32.334Z,14.57
2018-09-29T23:59:56.751Z,12.57
